sensor_id;sensor_type;location;lat;lon;timestamp;pressure;altitude;pressure_sealevel;temperature;humidity
57568;BME280;43403;51.948;5.922;2023-07-31T00:01:21;65435.88;;;-145.50;100.00
57568;BME280;43403;51.948;5.922;2023-07-31T00:03:47;65435.88;;;-145.50;100.00
57568;BME280;43403;51.948;5.922;2023-07-31T00:06:14;65435.88;;;-145.50;100.00
57568;BME280;43403;51.948;5.922;2023-07-31T00:08:41;65435.88;;;-145.50;100.00
57568;BME280;43403;51.948;5.922;2023-07-31T00:11:07;65435.88;;;-145.50;100.00
57568;BME280;43403;51.948;5.922;2023-07-31T00:13:33;65435.88;;;-145.50;100.00
57568;BME280;43403;51.948;5.922;2023-07-31T00:16:00;65435.88;;;-145.50;100.00
57568;BME280;43403;51.948;5.922;2023-07-31T00:18:27;65435.88;;;-145.50;100.00
57568;BME280;43403;51.948;5.922;2023-07-31T00:20:53;65435.88;;;-145.50;100.00
57568;BME280;43403;51.948;5.922;2023-07-31T00:23:20;65435.88;;;-145.50;100.00
57568;BME280;43403;51.948;5.922;2023-07-31T00:25:46;65435.88;;;-145.50;100.00
57568;BME280;43403;51.948;5.922;2023-07-31T00:28:13;65435.88;;;-145.50;100.00
57568;BME280;43403;51.948;5.922;2023-07-31T00:30:40;65435.88;;;-145.50;100.00
57568;BME280;43403;51.948;5.922;2023-07-31T00:33:06;65435.88;;;-145.50;100.00
57568;BME280;43403;51.948;5.922;2023-07-31T00:35:33;65435.88;;;-145.50;100.00
57568;BME280;43403;51.948;5.922;2023-07-31T00:37:59;65435.88;;;-145.50;100.00
57568;BME280;43403;51.948;5.922;2023-07-31T00:40:26;65435.88;;;-145.50;100.00
57568;BME280;43403;51.948;5.922;2023-07-31T00:42:52;65435.88;;;-145.50;100.00
57568;BME280;43403;51.948;5.922;2023-07-31T00:45:19;65435.88;;;-145.50;100.00
57568;BME280;43403;51.948;5.922;2023-07-31T00:47:46;65435.88;;;-145.50;100.00
57568;BME280;43403;51.948;5.922;2023-07-31T00:50:13;65435.88;;;-145.50;100.00
57568;BME280;43403;51.948;5.922;2023-07-31T00:52:40;65435.88;;;-145.50;100.00
57568;BME280;43403;51.948;5.922;2023-07-31T00:55:07;65435.88;;;-145.50;100.00
57568;BME280;43403;51.948;5.922;2023-07-31T00:57:36;65435.88;;;-145.50;100.00
57568;BME280;43403;51.948;5.922;2023-07-31T01:00:03;65435.88;;;-145.50;100.00
57568;BME280;43403;51.948;5.922;2023-07-31T01:02:29;65435.88;;;-145.50;100.00
57568;BME280;43403;51.948;5.922;2023-07-31T01:04:56;65435.88;;;-145.50;100.00
57568;BME280;43403;51.948;5.922;2023-07-31T01:08:00;65435.88;;;-145.50;100.00
57568;BME280;43403;51.948;5.922;2023-07-31T01:10:36;65435.88;;;-145.50;100.00
57568;BME280;43403;51.948;5.922;2023-07-31T01:13:05;65435.88;;;-145.50;100.00
57568;BME280;43403;51.948;5.922;2023-07-31T01:15:32;65435.88;;;-145.50;100.00
57568;BME280;43403;51.948;5.922;2023-07-31T01:17:59;65435.88;;;-145.50;100.00
57568;BME280;43403;51.948;5.922;2023-07-31T01:20:26;65435.88;;;-145.50;100.00
57568;BME280;43403;51.948;5.922;2023-07-31T01:26:17;65435.88;;;-145.50;100.00
57568;BME280;43403;51.948;5.922;2023-07-31T01:29:01;65435.88;;;-145.50;100.00
57568;BME280;43403;51.948;5.922;2023-07-31T01:31:29;65435.88;;;-145.50;100.00
57568;BME280;43403;51.948;5.922;2023-07-31T01:33:59;65435.88;;;-145.50;100.00
57568;BME280;43403;51.948;5.922;2023-07-31T01:36:27;65435.88;;;-145.50;100.00
57568;BME280;43403;51.948;5.922;2023-07-31T01:39:01;65435.88;;;-145.50;100.00
57568;BME280;43403;51.948;5.922;2023-07-31T01:41:28;65435.88;;;-145.50;100.00
57568;BME280;43403;51.948;5.922;2023-07-31T01:43:54;65435.88;;;-145.50;100.00
57568;BME280;43403;51.948;5.922;2023-07-31T01:46:21;65435.88;;;-145.50;100.00
57568;BME280;43403;51.948;5.922;2023-07-31T01:48:48;65435.88;;;-145.50;100.00
57568;BME280;43403;51.948;5.922;2023-07-31T01:51:14;65435.88;;;-145.50;100.00
57568;BME280;43403;51.948;5.922;2023-07-31T01:53:41;65435.88;;;-145.50;100.00
57568;BME280;43403;51.948;5.922;2023-07-31T01:56:07;65435.88;;;-145.50;100.00
57568;BME280;43403;51.948;5.922;2023-07-31T01:58:34;65435.88;;;-145.50;100.00
57568;BME280;43403;51.948;5.922;2023-07-31T02:01:00;65435.88;;;-145.50;100.00
57568;BME280;43403;51.948;5.922;2023-07-31T02:03:27;65435.88;;;-145.50;100.00
57568;BME280;43403;51.948;5.922;2023-07-31T02:05:54;65435.88;;;-145.50;100.00
57568;BME280;43403;51.948;5.922;2023-07-31T02:08:20;65435.88;;;-145.50;100.00
57568;BME280;43403;51.948;5.922;2023-07-31T02:10:47;65435.88;;;-145.50;100.00
57568;BME280;43403;51.948;5.922;2023-07-31T02:13:13;65435.88;;;-145.50;100.00
57568;BME280;43403;51.948;5.922;2023-07-31T02:15:40;65435.88;;;-145.50;100.00
57568;BME280;43403;51.948;5.922;2023-07-31T02:18:06;65435.88;;;-145.50;100.00
57568;BME280;43403;51.948;5.922;2023-07-31T02:20:34;65435.88;;;-145.50;100.00
57568;BME280;43403;51.948;5.922;2023-07-31T02:23:01;65435.88;;;-145.50;100.00
57568;BME280;43403;51.948;5.922;2023-07-31T02:25:28;65435.88;;;-145.50;100.00
57568;BME280;43403;51.948;5.922;2023-07-31T02:27:54;65435.88;;;-145.50;100.00
57568;BME280;43403;51.948;5.922;2023-07-31T02:30:21;65435.88;;;-145.50;100.00
57568;BME280;43403;51.948;5.922;2023-07-31T02:32:48;65435.88;;;-145.50;100.00
57568;BME280;43403;51.948;5.922;2023-07-31T02:35:15;65435.88;;;-145.50;100.00
57568;BME280;43403;51.948;5.922;2023-07-31T02:37:42;65435.88;;;-145.50;100.00
57568;BME280;43403;51.948;5.922;2023-07-31T02:40:09;65435.88;;;-145.50;100.00
57568;BME280;43403;51.948;5.922;2023-07-31T02:42:36;65435.88;;;-145.50;100.00
57568;BME280;43403;51.948;5.922;2023-07-31T02:45:02;65435.88;;;-145.50;100.00
57568;BME280;43403;51.948;5.922;2023-07-31T02:47:29;65435.88;;;-145.50;100.00
57568;BME280;43403;51.948;5.922;2023-07-31T02:49:56;65435.88;;;-145.50;100.00
57568;BME280;43403;51.948;5.922;2023-07-31T02:52:22;65435.88;;;-145.50;100.00
57568;BME280;43403;51.948;5.922;2023-07-31T02:54:49;65435.88;;;-145.50;100.00
57568;BME280;43403;51.948;5.922;2023-07-31T02:57:15;65435.88;;;-145.50;100.00
57568;BME280;43403;51.948;5.922;2023-07-31T02:59:43;65435.88;;;-145.50;100.00
57568;BME280;43403;51.948;5.922;2023-07-31T03:02:09;65435.88;;;-145.50;100.00
57568;BME280;43403;51.948;5.922;2023-07-31T03:04:36;65435.88;;;-145.50;100.00
57568;BME280;43403;51.948;5.922;2023-07-31T03:07:02;65435.88;;;-145.50;100.00
57568;BME280;43403;51.948;5.922;2023-07-31T03:09:29;65435.88;;;-145.50;100.00
57568;BME280;43403;51.948;5.922;2023-07-31T03:11:56;65435.88;;;-145.50;100.00
57568;BME280;43403;51.948;5.922;2023-07-31T03:14:22;65435.88;;;-145.50;100.00
57568;BME280;43403;51.948;5.922;2023-07-31T03:16:49;65435.88;;;-145.50;100.00
57568;BME280;43403;51.948;5.922;2023-07-31T03:19:15;65435.88;;;-145.50;100.00
57568;BME280;43403;51.948;5.922;2023-07-31T03:21:42;65435.88;;;-145.50;100.00
57568;BME280;43403;51.948;5.922;2023-07-31T03:24:08;65435.88;;;-145.50;100.00
57568;BME280;43403;51.948;5.922;2023-07-31T03:26:35;65435.88;;;-145.50;100.00
57568;BME280;43403;51.948;5.922;2023-07-31T03:29:03;65435.88;;;-145.50;100.00
57568;BME280;43403;51.948;5.922;2023-07-31T03:31:30;65435.88;;;-145.50;100.00
57568;BME280;43403;51.948;5.922;2023-07-31T03:33:56;65435.88;;;-145.50;100.00
57568;BME280;43403;51.948;5.922;2023-07-31T03:36:23;65435.88;;;-145.50;100.00
57568;BME280;43403;51.948;5.922;2023-07-31T03:38:51;65435.88;;;-145.50;100.00
57568;BME280;43403;51.948;5.922;2023-07-31T03:41:18;65435.88;;;-145.50;100.00
57568;BME280;43403;51.948;5.922;2023-07-31T03:43:47;65435.88;;;-145.50;100.00
57568;BME280;43403;51.948;5.922;2023-07-31T03:46:14;65435.88;;;-145.50;100.00
57568;BME280;43403;51.948;5.922;2023-07-31T03:48:41;65435.88;;;-145.50;100.00
57568;BME280;43403;51.948;5.922;2023-07-31T03:51:07;65435.88;;;-145.50;100.00
57568;BME280;43403;51.948;5.922;2023-07-31T03:53:34;65435.88;;;-145.50;100.00
57568;BME280;43403;51.948;5.922;2023-07-31T03:56:00;65435.88;;;-145.50;100.00
57568;BME280;43403;51.948;5.922;2023-07-31T03:58:27;65435.88;;;-145.50;100.00
57568;BME280;43403;51.948;5.922;2023-07-31T04:00:53;65435.88;;;-145.50;100.00
57568;BME280;43403;51.948;5.922;2023-07-31T04:03:20;65435.88;;;-145.50;100.00
57568;BME280;43403;51.948;5.922;2023-07-31T04:05:47;65435.88;;;-145.50;100.00
57568;BME280;43403;51.948;5.922;2023-07-31T04:08:13;65435.88;;;-145.50;100.00
57568;BME280;43403;51.948;5.922;2023-07-31T04:10:40;65435.88;;;-145.50;100.00
57568;BME280;43403;51.948;5.922;2023-07-31T04:13:06;65435.88;;;-145.50;100.00
57568;BME280;43403;51.948;5.922;2023-07-31T04:15:33;65435.88;;;-145.50;100.00
57568;BME280;43403;51.948;5.922;2023-07-31T04:17:59;65435.88;;;-145.50;100.00
57568;BME280;43403;51.948;5.922;2023-07-31T04:20:26;65435.88;;;-145.50;100.00
57568;BME280;43403;51.948;5.922;2023-07-31T04:22:52;65435.88;;;-145.50;100.00
57568;BME280;43403;51.948;5.922;2023-07-31T04:25:19;65435.88;;;-145.50;100.00
57568;BME280;43403;51.948;5.922;2023-07-31T04:27:45;65435.88;;;-145.50;100.00
57568;BME280;43403;51.948;5.922;2023-07-31T04:30:12;65435.88;;;-145.50;100.00
57568;BME280;43403;51.948;5.922;2023-07-31T04:32:39;65435.88;;;-145.50;100.00
57568;BME280;43403;51.948;5.922;2023-07-31T04:35:05;65435.88;;;-145.50;100.00
57568;BME280;43403;51.948;5.922;2023-07-31T04:37:32;65435.88;;;-145.50;100.00
57568;BME280;43403;51.948;5.922;2023-07-31T04:39:59;65435.88;;;-145.50;100.00
57568;BME280;43403;51.948;5.922;2023-07-31T04:42:25;65435.88;;;-145.50;100.00
57568;BME280;43403;51.948;5.922;2023-07-31T04:44:52;65435.88;;;-145.50;100.00
57568;BME280;43403;51.948;5.922;2023-07-31T04:47:19;65435.88;;;-145.50;100.00
57568;BME280;43403;51.948;5.922;2023-07-31T04:49:46;65435.88;;;-145.50;100.00
57568;BME280;43403;51.948;5.922;2023-07-31T04:52:12;65435.88;;;-145.50;100.00
57568;BME280;43403;51.948;5.922;2023-07-31T04:54:39;65435.88;;;-145.50;100.00
57568;BME280;43403;51.948;5.922;2023-07-31T04:57:05;65435.88;;;-145.50;100.00
57568;BME280;43403;51.948;5.922;2023-07-31T04:59:33;65435.88;;;-145.50;100.00
57568;BME280;43403;51.948;5.922;2023-07-31T05:01:59;65435.88;;;-145.50;100.00
57568;BME280;43403;51.948;5.922;2023-07-31T05:04:26;65435.88;;;-145.50;100.00
57568;BME280;43403;51.948;5.922;2023-07-31T05:06:52;65435.88;;;-145.50;100.00
57568;BME280;43403;51.948;5.922;2023-07-31T05:09:19;65435.88;;;-145.50;100.00
57568;BME280;43403;51.948;5.922;2023-07-31T05:11:45;65435.88;;;-145.50;100.00
57568;BME280;43403;51.948;5.922;2023-07-31T05:14:12;65435.88;;;-145.50;100.00
57568;BME280;43403;51.948;5.922;2023-07-31T05:16:39;65435.88;;;-145.50;100.00
57568;BME280;43403;51.948;5.922;2023-07-31T05:19:06;65435.88;;;-145.50;100.00
57568;BME280;43403;51.948;5.922;2023-07-31T05:21:32;65435.88;;;-145.50;100.00
57568;BME280;43403;51.948;5.922;2023-07-31T05:23:59;65435.88;;;-145.50;100.00
57568;BME280;43403;51.948;5.922;2023-07-31T05:26:25;65435.88;;;-145.50;100.00
57568;BME280;43403;51.948;5.922;2023-07-31T05:28:52;65435.88;;;-145.50;100.00
57568;BME280;43403;51.948;5.922;2023-07-31T05:31:19;65435.88;;;-145.50;100.00
57568;BME280;43403;51.948;5.922;2023-07-31T05:33:45;65435.88;;;-145.50;100.00
57568;BME280;43403;51.948;5.922;2023-07-31T05:36:12;65435.88;;;-145.50;100.00
57568;BME280;43403;51.948;5.922;2023-07-31T05:38:38;65435.88;;;-145.50;100.00
57568;BME280;43403;51.948;5.922;2023-07-31T05:41:08;65435.88;;;-145.50;100.00
57568;BME280;43403;51.948;5.922;2023-07-31T05:43:35;65435.88;;;-145.50;100.00
57568;BME280;43403;51.948;5.922;2023-07-31T05:46:02;65435.88;;;-145.50;100.00
57568;BME280;43403;51.948;5.922;2023-07-31T05:48:31;65435.88;;;-145.50;100.00
57568;BME280;43403;51.948;5.922;2023-07-31T05:50:58;65435.88;;;-145.50;100.00
57568;BME280;43403;51.948;5.922;2023-07-31T05:53:24;65435.88;;;-145.50;100.00
57568;BME280;43403;51.948;5.922;2023-07-31T05:55:51;65435.88;;;-145.50;100.00
57568;BME280;43403;51.948;5.922;2023-07-31T05:58:17;65435.88;;;-145.50;100.00
57568;BME280;43403;51.948;5.922;2023-07-31T06:00:44;65435.88;;;-145.50;100.00
57568;BME280;43403;51.948;5.922;2023-07-31T06:03:11;65435.88;;;-145.50;100.00
57568;BME280;43403;51.948;5.922;2023-07-31T06:05:37;65435.88;;;-145.50;100.00
57568;BME280;43403;51.948;5.922;2023-07-31T06:08:04;65435.88;;;-145.50;100.00
57568;BME280;43403;51.948;5.922;2023-07-31T06:10:30;65435.88;;;-145.50;100.00
57568;BME280;43403;51.948;5.922;2023-07-31T06:12:57;65435.88;;;-145.50;100.00
57568;BME280;43403;51.948;5.922;2023-07-31T06:15:24;65435.88;;;-145.50;100.00
57568;BME280;43403;51.948;5.922;2023-07-31T06:17:50;65435.88;;;-145.50;100.00
57568;BME280;43403;51.948;5.922;2023-07-31T06:20:18;65435.88;;;-145.50;100.00
57568;BME280;43403;51.948;5.922;2023-07-31T06:22:45;65435.88;;;-145.50;100.00
57568;BME280;43403;51.948;5.922;2023-07-31T06:25:11;65435.88;;;-145.50;100.00
57568;BME280;43403;51.948;5.922;2023-07-31T06:27:41;65435.88;;;-145.50;100.00
57568;BME280;43403;51.948;5.922;2023-07-31T06:30:07;65435.88;;;-145.50;100.00
57568;BME280;43403;51.948;5.922;2023-07-31T06:32:34;65435.88;;;-145.50;100.00
57568;BME280;43403;51.948;5.922;2023-07-31T06:35:01;65435.88;;;-145.50;100.00
57568;BME280;43403;51.948;5.922;2023-07-31T06:37:27;65435.88;;;-145.50;100.00
57568;BME280;43403;51.948;5.922;2023-07-31T06:39:54;65435.88;;;-145.50;100.00
57568;BME280;43403;51.948;5.922;2023-07-31T06:42:21;65435.88;;;-145.50;100.00
57568;BME280;43403;51.948;5.922;2023-07-31T06:44:47;65435.88;;;-145.50;100.00
57568;BME280;43403;51.948;5.922;2023-07-31T06:47:14;65435.88;;;-145.50;100.00
57568;BME280;43403;51.948;5.922;2023-07-31T06:49:40;65435.88;;;-145.50;100.00
57568;BME280;43403;51.948;5.922;2023-07-31T06:52:07;65435.88;;;-145.50;100.00
57568;BME280;43403;51.948;5.922;2023-07-31T06:54:33;65435.88;;;-145.50;100.00
57568;BME280;43403;51.948;5.922;2023-07-31T06:57:00;65435.88;;;-145.50;100.00
57568;BME280;43403;51.948;5.922;2023-07-31T06:59:26;65435.88;;;-145.50;100.00
57568;BME280;43403;51.948;5.922;2023-07-31T07:01:53;65435.88;;;-145.50;100.00
57568;BME280;43403;51.948;5.922;2023-07-31T07:04:19;65435.88;;;-145.50;100.00
57568;BME280;43403;51.948;5.922;2023-07-31T07:06:46;65435.88;;;-145.50;100.00
57568;BME280;43403;51.948;5.922;2023-07-31T07:09:12;65435.88;;;-145.50;100.00
57568;BME280;43403;51.948;5.922;2023-07-31T07:11:39;65435.88;;;-145.50;100.00
57568;BME280;43403;51.948;5.922;2023-07-31T07:14:05;65435.88;;;-145.50;100.00
57568;BME280;43403;51.948;5.922;2023-07-31T07:16:32;65435.88;;;-145.50;100.00
57568;BME280;43403;51.948;5.922;2023-07-31T07:18:58;65435.88;;;-145.50;100.00
57568;BME280;43403;51.948;5.922;2023-07-31T07:21:30;65435.88;;;-145.50;100.00
57568;BME280;43403;51.948;5.922;2023-07-31T07:23:57;65435.88;;;-145.50;100.00
57568;BME280;43403;51.948;5.922;2023-07-31T07:26:23;65435.88;;;-145.50;100.00
57568;BME280;43403;51.948;5.922;2023-07-31T07:28:50;65435.88;;;-145.50;100.00
57568;BME280;43403;51.948;5.922;2023-07-31T07:31:16;65435.88;;;-145.50;100.00
57568;BME280;43403;51.948;5.922;2023-07-31T07:33:43;65435.88;;;-145.50;100.00
57568;BME280;43403;51.948;5.922;2023-07-31T07:36:10;65435.88;;;-145.50;100.00
57568;BME280;43403;51.948;5.922;2023-07-31T07:38:36;65435.88;;;-145.50;100.00
57568;BME280;43403;51.948;5.922;2023-07-31T07:41:03;65435.88;;;-145.50;100.00
57568;BME280;43403;51.948;5.922;2023-07-31T07:43:30;65435.88;;;-145.50;100.00
57568;BME280;43403;51.948;5.922;2023-07-31T07:45:56;65435.88;;;-145.50;100.00
57568;BME280;43403;51.948;5.922;2023-07-31T07:48:23;65435.88;;;-145.50;100.00
57568;BME280;43403;51.948;5.922;2023-07-31T07:50:51;65435.88;;;-145.50;100.00
57568;BME280;43403;51.948;5.922;2023-07-31T07:53:17;65435.88;;;-145.50;100.00
57568;BME280;43403;51.948;5.922;2023-07-31T07:55:44;65435.88;;;-145.50;100.00
57568;BME280;43403;51.948;5.922;2023-07-31T07:58:10;65435.88;;;-145.50;100.00
57568;BME280;43403;51.948;5.922;2023-07-31T08:00:37;65435.88;;;-145.50;100.00
57568;BME280;43403;51.948;5.922;2023-07-31T08:03:04;65435.88;;;-145.50;100.00
57568;BME280;43403;51.948;5.922;2023-07-31T08:05:30;65435.88;;;-145.50;100.00
57568;BME280;43403;51.948;5.922;2023-07-31T08:08:00;65435.88;;;-145.50;100.00
57568;BME280;43403;51.948;5.922;2023-07-31T08:10:27;65435.88;;;-145.50;100.00
57568;BME280;43403;51.948;5.922;2023-07-31T08:12:53;65435.88;;;-145.50;100.00
57568;BME280;43403;51.948;5.922;2023-07-31T08:15:20;65435.88;;;-145.50;100.00
57568;BME280;43403;51.948;5.922;2023-07-31T08:17:46;65435.88;;;-145.50;100.00
57568;BME280;43403;51.948;5.922;2023-07-31T08:20:13;65435.88;;;-145.50;100.00
57568;BME280;43403;51.948;5.922;2023-07-31T08:22:40;65435.88;;;-145.50;100.00
57568;BME280;43403;51.948;5.922;2023-07-31T08:25:07;65435.88;;;-145.50;100.00
57568;BME280;43403;51.948;5.922;2023-07-31T08:27:34;65435.88;;;-145.50;100.00
57568;BME280;43403;51.948;5.922;2023-07-31T08:30:00;65435.88;;;-145.50;100.00
57568;BME280;43403;51.948;5.922;2023-07-31T08:32:27;65435.88;;;-145.50;100.00
57568;BME280;43403;51.948;5.922;2023-07-31T08:34:53;65435.88;;;-145.50;100.00
57568;BME280;43403;51.948;5.922;2023-07-31T08:37:20;65435.88;;;-145.50;100.00
57568;BME280;43403;51.948;5.922;2023-07-31T08:39:46;65435.88;;;-145.50;100.00
57568;BME280;43403;51.948;5.922;2023-07-31T08:42:13;65435.88;;;-145.50;100.00
57568;BME280;43403;51.948;5.922;2023-07-31T08:44:40;65435.88;;;-145.50;100.00
57568;BME280;43403;51.948;5.922;2023-07-31T08:47:07;65435.88;;;-145.50;100.00
57568;BME280;43403;51.948;5.922;2023-07-31T08:49:35;65435.88;;;-145.50;100.00
57568;BME280;43403;51.948;5.922;2023-07-31T08:52:03;65435.88;;;-145.50;100.00
57568;BME280;43403;51.948;5.922;2023-07-31T08:54:30;65435.88;;;-145.50;100.00
57568;BME280;43403;51.948;5.922;2023-07-31T08:56:57;65435.88;;;-145.50;100.00
57568;BME280;43403;51.948;5.922;2023-07-31T08:59:30;65435.88;;;-145.50;100.00
57568;BME280;43403;51.948;5.922;2023-07-31T09:02:03;65435.88;;;-145.50;100.00
57568;BME280;43403;51.948;5.922;2023-07-31T09:04:32;65435.88;;;-145.50;100.00
57568;BME280;43403;51.948;5.922;2023-07-31T09:07:01;65435.88;;;-145.50;100.00
57568;BME280;43403;51.948;5.922;2023-07-31T09:10:28;65435.88;;;-145.50;100.00
57568;BME280;43403;51.948;5.922;2023-07-31T09:13:52;65435.88;;;-145.50;100.00
57568;BME280;43403;51.948;5.922;2023-07-31T09:17:28;65435.88;;;-145.50;100.00
57568;BME280;43403;51.948;5.922;2023-07-31T09:19:55;100590.50;;;16.76;100.00
57568;BME280;43403;51.948;5.922;2023-07-31T09:23:40;65435.88;;;-145.50;100.00
57568;BME280;43403;51.948;5.922;2023-07-31T09:27:06;65435.88;;;-145.50;100.00
57568;BME280;43403;51.948;5.922;2023-07-31T09:30:31;65435.88;;;-145.50;100.00
57568;BME280;43403;51.948;5.922;2023-07-31T09:34:00;65435.88;;;-145.50;100.00
57568;BME280;43403;51.948;5.922;2023-07-31T09:37:28;65435.88;;;-145.50;100.00
57568;BME280;43403;51.948;5.922;2023-07-31T09:40:54;65435.88;;;-145.50;100.00
57568;BME280;43403;51.948;5.922;2023-07-31T09:43:21;100569.19;;;16.85;100.00
57568;BME280;43403;51.948;5.922;2023-07-31T09:45:48;100573.47;;;16.86;100.00
57568;BME280;43403;51.948;5.922;2023-07-31T09:48:20;100573.47;;;16.86;100.00
57568;BME280;43403;51.948;5.922;2023-07-31T09:50:48;100565.38;;;16.94;100.00
57568;BME280;43403;51.948;5.922;2023-07-31T09:53:16;100564.53;;;16.93;100.00
57568;BME280;43403;51.948;5.922;2023-07-31T09:55:43;100565.16;;;16.95;100.00
57568;BME280;43403;51.948;5.922;2023-07-31T09:59:10;65435.88;;;-145.50;100.00
57568;BME280;43403;51.948;5.922;2023-07-31T10:01:39;100558.97;;;17.16;100.00
57568;BME280;43403;51.948;5.922;2023-07-31T10:04:09;100565.13;;;17.24;100.00
57568;BME280;43403;51.948;5.922;2023-07-31T10:07:39;65435.88;;;-145.50;100.00
57568;BME280;43403;51.948;5.922;2023-07-31T10:11:05;65435.88;;;-145.50;100.00
57568;BME280;43403;51.948;5.922;2023-07-31T10:14:32;65435.88;;;-145.50;100.00
57568;BME280;43403;51.948;5.922;2023-07-31T10:17:41;100565.13;;;17.24;100.00
57568;BME280;43403;51.948;5.922;2023-07-31T10:21:06;65435.88;;;-145.50;100.00
57568;BME280;43403;51.948;5.922;2023-07-31T10:24:32;65435.88;;;-145.50;100.00
57568;BME280;43403;51.948;5.922;2023-07-31T10:27:00;100552.41;;;17.54;100.00
57568;BME280;43403;51.948;5.922;2023-07-31T10:29:47;100552.41;;;17.54;100.00
57568;BME280;43403;51.948;5.922;2023-07-31T10:32:16;100558.94;;;17.58;100.00
57568;BME280;43403;51.948;5.922;2023-07-31T10:34:43;100551.59;;;17.53;100.00
57568;BME280;43403;51.948;5.922;2023-07-31T10:37:26;100550.59;;;17.61;100.00
57568;BME280;43403;51.948;5.922;2023-07-31T10:42:36;100552.84;;;17.64;100.00
57568;BME280;43403;51.948;5.922;2023-07-31T10:45:08;100545.09;;;17.69;100.00
57568;BME280;43403;51.948;5.922;2023-07-31T10:47:44;100546.16;;;17.82;100.00
57568;BME280;43403;51.948;5.922;2023-07-31T10:50:23;100542.53;;;17.89;100.00
57568;BME280;43403;51.948;5.922;2023-07-31T10:52:52;100541.75;;;18.02;100.00
57568;BME280;43403;51.948;5.922;2023-07-31T10:55:40;100545.22;;;18.16;100.00
57568;BME280;43403;51.948;5.922;2023-07-31T10:58:11;100541.13;;;18.20;100.00
57568;BME280;43403;51.948;5.922;2023-07-31T11:00:39;100556.66;;;18.10;100.00
57568;BME280;43403;51.948;5.922;2023-07-31T11:03:07;100537.88;;;18.11;100.00
57568;BME280;43403;51.948;5.922;2023-07-31T11:06:02;100539.53;;;18.19;100.00
57568;BME280;43403;51.948;5.922;2023-07-31T11:08:32;100535.63;;;18.22;100.00
57568;BME280;43403;51.948;5.922;2023-07-31T11:16:08;100531.53;;;18.26;100.00
57568;BME280;43403;51.948;5.922;2023-07-31T11:18:35;100532.34;;;18.26;100.00
57568;BME280;43403;51.948;5.922;2023-07-31T11:21:02;100545.41;;;18.14;100.00
57568;BME280;43403;51.948;5.922;2023-07-31T11:23:28;100537.03;;;18.11;100.00
57568;BME280;43403;51.948;5.922;2023-07-31T11:25:59;100529.88;;;18.05;100.00
57568;BME280;43403;51.948;5.922;2023-07-31T11:28:26;100527.44;;;18.03;100.00
57568;BME280;43403;51.948;5.922;2023-07-31T11:30:55;100536.44;;;18.09;100.00
57568;BME280;43403;51.948;5.922;2023-07-31T11:33:22;100532.56;;;18.11;100.00
57568;BME280;43403;51.948;5.922;2023-07-31T11:35:48;100538.06;;;18.10;100.00
57568;BME280;43403;51.948;5.922;2023-07-31T11:38:26;100531.34;;;18.14;100.00
57568;BME280;43403;51.948;5.922;2023-07-31T11:40:55;100529.69;;;18.13;100.00
57568;BME280;43403;51.948;5.922;2023-07-31T11:43:23;100534.59;;;18.23;100.00
57568;BME280;43403;51.948;5.922;2023-07-31T11:45:57;100531.53;;;18.32;100.00
57568;BME280;43403;51.948;5.922;2023-07-31T11:48:32;100524.78;;;18.36;100.00
57568;BME280;43403;51.948;5.922;2023-07-31T11:51:01;100534.19;;;18.32;100.00
57568;BME280;43403;51.948;5.922;2023-07-31T11:56:05;100528.69;;;18.34;100.00
57568;BME280;43403;51.948;5.922;2023-07-31T11:58:34;100528.47;;;18.35;100.00
57568;BME280;43403;51.948;5.922;2023-07-31T12:01:01;100526.44;;;18.37;100.00
57568;BME280;43403;51.948;5.922;2023-07-31T12:03:28;100529.31;;;18.43;100.00
57568;BME280;43403;51.948;5.922;2023-07-31T12:05:55;100524.38;;;18.46;100.00
57568;BME280;43403;51.948;5.922;2023-07-31T12:08:23;100528.06;;;18.52;100.00
57568;BME280;43403;51.948;5.922;2023-07-31T12:10:50;100525.19;;;18.60;100.00
57568;BME280;43403;51.948;5.922;2023-07-31T12:13:22;100517.84;;;18.62;100.00
57568;BME280;43403;51.948;5.922;2023-07-31T12:15:53;100522.94;;;18.64;100.00
57568;BME280;43403;51.948;5.922;2023-07-31T12:18:20;100534.78;;;18.61;100.00
57568;BME280;43403;51.948;5.922;2023-07-31T12:21:46;65435.88;;;-145.50;100.00
57568;BME280;43403;51.948;5.922;2023-07-31T12:24:13;100528.88;;;18.59;100.00
57568;BME280;43403;51.948;5.922;2023-07-31T12:26:39;100536.63;;;18.61;100.00
57568;BME280;43403;51.948;5.922;2023-07-31T12:29:07;100533.78;;;18.42;100.00
57568;BME280;43403;51.948;5.922;2023-07-31T12:31:34;100527.06;;;18.40;100.00
57568;BME280;43403;51.948;5.922;2023-07-31T12:34:00;100529.09;;;18.31;100.00
57568;BME280;43403;51.948;5.922;2023-07-31T12:36:29;100527.66;;;18.28;100.00
57568;BME280;43403;51.948;5.922;2023-07-31T12:38:58;100516.63;;;18.31;100.00
57568;BME280;43403;51.948;5.922;2023-07-31T12:41:26;100515.59;;;18.32;100.00
57568;BME280;43403;51.948;5.922;2023-07-31T12:43:52;100514.38;;;18.28;100.00
57568;BME280;43403;51.948;5.922;2023-07-31T12:46:19;100505.63;;;18.21;100.00
57568;BME280;43403;51.948;5.922;2023-07-31T12:48:46;100512.56;;;18.15;100.00
57568;BME280;43403;51.948;5.922;2023-07-31T12:51:12;100507.66;;;18.12;100.00
57568;BME280;43403;51.948;5.922;2023-07-31T12:53:39;100502.94;;;18.14;100.00
57568;BME280;43403;51.948;5.922;2023-07-31T12:56:05;100504.59;;;18.15;100.00
57568;BME280;43403;51.948;5.922;2023-07-31T12:58:32;100506.03;;;18.11;100.00
57568;BME280;43403;51.948;5.922;2023-07-31T13:00:59;100508.66;;;18.18;100.00
57568;BME280;43403;51.948;5.922;2023-07-31T13:03:25;100507.44;;;18.27;100.00
57568;BME280;43403;51.948;5.922;2023-07-31T13:05:52;100500.50;;;18.13;100.00